sensor_id;sensor_type;location;lat;lon;timestamp;temperature;humidity
10278;DHT22;5184;51.376;7.148;2023-03-23T00:00:48;10.50;99.90
10278;DHT22;5184;51.376;7.148;2023-03-23T00:03:15;10.50;99.90
10278;DHT22;5184;51.376;7.148;2023-03-23T00:05:41;10.50;99.90
10278;DHT22;5184;51.376;7.148;2023-03-23T00:08:08;10.50;99.90
10278;DHT22;5184;51.376;7.148;2023-03-23T00:10:35;10.50;99.90
10278;DHT22;5184;51.376;7.148;2023-03-23T00:13:02;10.50;99.90
10278;DHT22;5184;51.376;7.148;2023-03-23T00:15:29;10.60;99.90
10278;DHT22;5184;51.376;7.148;2023-03-23T00:17:57;10.60;99.90
10278;DHT22;5184;51.376;7.148;2023-03-23T00:20:24;10.60;99.90
10278;DHT22;5184;51.376;7.148;2023-03-23T00:22:50;10.70;99.90
10278;DHT22;5184;51.376;7.148;2023-03-23T00:25:18;10.70;99.90
10278;DHT22;5184;51.376;7.148;2023-03-23T00:27:45;10.80;99.90
10278;DHT22;5184;51.376;7.148;2023-03-23T00:30:12;10.90;99.90
10278;DHT22;5184;51.376;7.148;2023-03-23T00:32:39;10.80;99.90
10278;DHT22;5184;51.376;7.148;2023-03-23T00:35:06;10.90;99.90
10278;DHT22;5184;51.376;7.148;2023-03-23T00:37:32;10.90;99.90
10278;DHT22;5184;51.376;7.148;2023-03-23T00:39:59;10.90;99.90
10278;DHT22;5184;51.376;7.148;2023-03-23T00:42:25;10.90;99.90
10278;DHT22;5184;51.376;7.148;2023-03-23T00:44:52;10.90;99.90
10278;DHT22;5184;51.376;7.148;2023-03-23T00:47:21;11.00;99.90
10278;DHT22;5184;51.376;7.148;2023-03-23T00:49:47;11.00;99.90
10278;DHT22;5184;51.376;7.148;2023-03-23T00:52:14;11.00;99.90
10278;DHT22;5184;51.376;7.148;2023-03-23T00:54:40;11.00;96.40
10278;DHT22;5184;51.376;7.148;2023-03-23T00:57:07;11.00;99.90
10278;DHT22;5184;51.376;7.148;2023-03-23T00:59:34;11.00;83.20
10278;DHT22;5184;51.376;7.148;2023-03-23T01:02:02;11.00;46.80
10278;DHT22;5184;51.376;7.148;2023-03-23T01:04:29;11.00;60.20
10278;DHT22;5184;51.376;7.148;2023-03-23T01:06:56;11.00;60.40
10278;DHT22;5184;51.376;7.148;2023-03-23T01:09:22;11.10;21.50
10278;DHT22;5184;51.376;7.148;2023-03-23T01:11:49;11.00;23.10
10278;DHT22;5184;51.376;7.148;2023-03-23T01:14:17;11.00;72.20
10278;DHT22;5184;51.376;7.148;2023-03-23T01:16:44;11.00;98.60
10278;DHT22;5184;51.376;7.148;2023-03-23T01:19:11;11.00;99.90
10278;DHT22;5184;51.376;7.148;2023-03-23T01:21:38;11.00;99.90
10278;DHT22;5184;51.376;7.148;2023-03-23T01:24:05;11.00;99.90
10278;DHT22;5184;51.376;7.148;2023-03-23T01:26:33;11.00;99.90
10278;DHT22;5184;51.376;7.148;2023-03-23T01:28:59;11.00;99.90
10278;DHT22;5184;51.376;7.148;2023-03-23T01:31:26;11.00;99.90
10278;DHT22;5184;51.376;7.148;2023-03-23T01:33:53;11.00;99.90
10278;DHT22;5184;51.376;7.148;2023-03-23T01:36:21;10.90;99.90
10278;DHT22;5184;51.376;7.148;2023-03-23T01:38:47;10.90;99.90
10278;DHT22;5184;51.376;7.148;2023-03-23T01:41:13;10.90;99.90
10278;DHT22;5184;51.376;7.148;2023-03-23T01:43:56;10.90;99.90
10278;DHT22;5184;51.376;7.148;2023-03-23T01:46:22;10.80;99.90
10278;DHT22;5184;51.376;7.148;2023-03-23T01:48:48;10.90;99.90
10278;DHT22;5184;51.376;7.148;2023-03-23T01:51:15;10.90;99.90
10278;DHT22;5184;51.376;7.148;2023-03-23T01:53:44;10.90;99.90
10278;DHT22;5184;51.376;7.148;2023-03-23T01:56:10;10.80;99.90
10278;DHT22;5184;51.376;7.148;2023-03-23T01:58:37;10.80;99.90
10278;DHT22;5184;51.376;7.148;2023-03-23T02:01:05;10.80;99.90
10278;DHT22;5184;51.376;7.148;2023-03-23T02:03:30;10.80;99.90
10278;DHT22;5184;51.376;7.148;2023-03-23T02:05:57;10.80;99.90
10278;DHT22;5184;51.376;7.148;2023-03-23T02:08:24;10.80;99.90
10278;DHT22;5184;51.376;7.148;2023-03-23T02:10:51;10.80;99.90
10278;DHT22;5184;51.376;7.148;2023-03-23T02:13:18;10.90;99.90
10278;DHT22;5184;51.376;7.148;2023-03-23T02:15:53;10.90;99.90
10278;DHT22;5184;51.376;7.148;2023-03-23T02:18:19;10.80;99.90
10278;DHT22;5184;51.376;7.148;2023-03-23T02:20:52;10.90;99.90
10278;DHT22;5184;51.376;7.148;2023-03-23T02:23:27;10.90;99.90
10278;DHT22;5184;51.376;7.148;2023-03-23T02:25:59;10.90;99.90
10278;DHT22;5184;51.376;7.148;2023-03-23T02:31:21;10.80;99.90
10278;DHT22;5184;51.376;7.148;2023-03-23T02:36:23;10.80;99.90
10278;DHT22;5184;51.376;7.148;2023-03-23T02:39:09;10.80;99.90
10278;DHT22;5184;51.376;7.148;2023-03-23T02:41:41;10.80;99.90
10278;DHT22;5184;51.376;7.148;2023-03-23T02:44:06;10.80;99.90
10278;DHT22;5184;51.376;7.148;2023-03-23T02:46:33;10.70;99.90
10278;DHT22;5184;51.376;7.148;2023-03-23T02:48:59;10.70;99.90
10278;DHT22;5184;51.376;7.148;2023-03-23T02:51:26;10.70;99.90
10278;DHT22;5184;51.376;7.148;2023-03-23T02:53:54;10.70;99.90
10278;DHT22;5184;51.376;7.148;2023-03-23T02:56:21;10.60;99.90
10278;DHT22;5184;51.376;7.148;2023-03-23T02:58:47;10.60;99.90
10278;DHT22;5184;51.376;7.148;2023-03-23T03:01:47;10.60;99.90
10278;DHT22;5184;51.376;7.148;2023-03-23T03:03:42;10.60;99.90
10278;DHT22;5184;51.376;7.148;2023-03-23T03:06:23;10.60;99.90
10278;DHT22;5184;51.376;7.148;2023-03-23T03:08:49;10.60;99.90
10278;DHT22;5184;51.376;7.148;2023-03-23T03:11:14;10.60;99.90
10278;DHT22;5184;51.376;7.148;2023-03-23T03:14:00;10.60;99.90
10278;DHT22;5184;51.376;7.148;2023-03-23T03:17:00;10.60;99.90
10278;DHT22;5184;51.376;7.148;2023-03-23T03:19:25;10.70;99.90
10278;DHT22;5184;51.376;7.148;2023-03-23T03:21:52;10.70;99.90
10278;DHT22;5184;51.376;7.148;2023-03-23T03:24:20;10.70;99.90
10278;DHT22;5184;51.376;7.148;2023-03-23T03:26:48;10.70;99.90
10278;DHT22;5184;51.376;7.148;2023-03-23T03:29:16;10.70;99.90
10278;DHT22;5184;51.376;7.148;2023-03-23T03:31:41;10.70;99.90
10278;DHT22;5184;51.376;7.148;2023-03-23T03:34:07;10.70;99.90
10278;DHT22;5184;51.376;7.148;2023-03-23T03:36:35;10.70;99.90
10278;DHT22;5184;51.376;7.148;2023-03-23T03:39:04;10.80;99.90
10278;DHT22;5184;51.376;7.148;2023-03-23T03:41:29;10.80;89.00
10278;DHT22;5184;51.376;7.148;2023-03-23T03:43:57;10.80;34.30
10278;DHT22;5184;51.376;7.148;2023-03-23T03:46:24;10.90;1.00
10278;DHT22;5184;51.376;7.148;2023-03-23T03:48:51;10.80;1.00
10278;DHT22;5184;51.376;7.148;2023-03-23T03:51:17;10.90;1.00
10278;DHT22;5184;51.376;7.148;2023-03-23T03:53:44;10.90;1.00
10278;DHT22;5184;51.376;7.148;2023-03-23T03:56:11;10.90;1.00
10278;DHT22;5184;51.376;7.148;2023-03-23T03:58:37;11.00;1.00
10278;DHT22;5184;51.376;7.148;2023-03-23T04:01:04;11.00;1.00
10278;DHT22;5184;51.376;7.148;2023-03-23T04:03:30;11.00;1.00
10278;DHT22;5184;51.376;7.148;2023-03-23T04:05:58;11.00;1.00
10278;DHT22;5184;51.376;7.148;2023-03-23T04:08:25;11.10;99.90
10278;DHT22;5184;51.376;7.148;2023-03-23T04:10:52;11.10;99.90
10278;DHT22;5184;51.376;7.148;2023-03-23T04:13:19;11.00;99.90
10278;DHT22;5184;51.376;7.148;2023-03-23T04:15:46;11.10;99.90
10278;DHT22;5184;51.376;7.148;2023-03-23T04:18:13;11.10;99.90
10278;DHT22;5184;51.376;7.148;2023-03-23T04:20:39;11.00;99.90
10278;DHT22;5184;51.376;7.148;2023-03-23T04:23:05;11.00;1.00
10278;DHT22;5184;51.376;7.148;2023-03-23T04:25:33;11.00;99.90
10278;DHT22;5184;51.376;7.148;2023-03-23T04:28:00;11.10;99.90
10278;DHT22;5184;51.376;7.148;2023-03-23T04:30:28;11.00;99.90
10278;DHT22;5184;51.376;7.148;2023-03-23T04:32:54;11.00;99.90
10278;DHT22;5184;51.376;7.148;2023-03-23T04:35:22;11.10;99.90
10278;DHT22;5184;51.376;7.148;2023-03-23T04:37:47;11.10;99.90
10278;DHT22;5184;51.376;7.148;2023-03-23T04:40:14;11.10;99.90
10278;DHT22;5184;51.376;7.148;2023-03-23T04:42:41;11.10;99.90
10278;DHT22;5184;51.376;7.148;2023-03-23T04:45:08;11.10;99.90
10278;DHT22;5184;51.376;7.148;2023-03-23T04:47:35;11.10;99.90
10278;DHT22;5184;51.376;7.148;2023-03-23T04:50:01;11.10;99.90
10278;DHT22;5184;51.376;7.148;2023-03-23T04:52:28;11.10;99.90
10278;DHT22;5184;51.376;7.148;2023-03-23T04:54:54;11.10;99.90
10278;DHT22;5184;51.376;7.148;2023-03-23T04:57:23;11.10;99.90
10278;DHT22;5184;51.376;7.148;2023-03-23T04:59:50;11.10;99.90
10278;DHT22;5184;51.376;7.148;2023-03-23T05:02:17;11.10;99.90
10278;DHT22;5184;51.376;7.148;2023-03-23T05:04:45;11.10;83.10
10278;DHT22;5184;51.376;7.148;2023-03-23T05:07:11;11.10;84.20
10278;DHT22;5184;51.376;7.148;2023-03-23T05:09:38;11.10;1.00
10278;DHT22;5184;51.376;7.148;2023-03-23T05:12:06;11.20;1.00
10278;DHT22;5184;51.376;7.148;2023-03-23T05:14:33;11.20;1.00
10278;DHT22;5184;51.376;7.148;2023-03-23T05:17:00;11.20;1.00
10278;DHT22;5184;51.376;7.148;2023-03-23T05:19:27;11.20;1.00
10278;DHT22;5184;51.376;7.148;2023-03-23T05:21:56;11.20;1.00
10278;DHT22;5184;51.376;7.148;2023-03-23T05:24:20;11.20;1.00
10278;DHT22;5184;51.376;7.148;2023-03-23T05:26:47;11.20;1.00
10278;DHT22;5184;51.376;7.148;2023-03-23T05:29:14;11.20;1.00
10278;DHT22;5184;51.376;7.148;2023-03-23T05:31:41;11.30;1.00
10278;DHT22;5184;51.376;7.148;2023-03-23T05:34:07;11.20;99.90
10278;DHT22;5184;51.376;7.148;2023-03-23T05:36:34;11.20;99.90
10278;DHT22;5184;51.376;7.148;2023-03-23T05:39:01;11.50;99.90
10278;DHT22;5184;51.376;7.148;2023-03-23T05:41:28;11.30;1.00
10278;DHT22;5184;51.376;7.148;2023-03-23T05:43:55;11.30;1.00
10278;DHT22;5184;51.376;7.148;2023-03-23T05:46:22;11.40;1.00
10278;DHT22;5184;51.376;7.148;2023-03-23T05:48:48;11.40;1.00
10278;DHT22;5184;51.376;7.148;2023-03-23T05:51:15;11.40;1.00
10278;DHT22;5184;51.376;7.148;2023-03-23T05:53:41;11.40;1.00
10278;DHT22;5184;51.376;7.148;2023-03-23T05:56:08;11.40;1.00
10278;DHT22;5184;51.376;7.148;2023-03-23T05:58:35;11.40;1.00
10278;DHT22;5184;51.376;7.148;2023-03-23T06:01:05;11.40;1.00
10278;DHT22;5184;51.376;7.148;2023-03-23T06:03:29;11.40;1.00
10278;DHT22;5184;51.376;7.148;2023-03-23T06:05:57;11.40;1.00
10278;DHT22;5184;51.376;7.148;2023-03-23T06:08:24;11.40;1.00
10278;DHT22;5184;51.376;7.148;2023-03-23T06:10:51;11.50;1.00
10278;DHT22;5184;51.376;7.148;2023-03-23T06:13:19;11.50;1.00
10278;DHT22;5184;51.376;7.148;2023-03-23T06:15:46;11.50;1.00
10278;DHT22;5184;51.376;7.148;2023-03-23T06:18:13;11.50;1.00
10278;DHT22;5184;51.376;7.148;2023-03-23T06:20:39;11.50;1.00
10278;DHT22;5184;51.376;7.148;2023-03-23T06:23:06;11.50;1.00
10278;DHT22;5184;51.376;7.148;2023-03-23T06:25:33;11.50;1.00
10278;DHT22;5184;51.376;7.148;2023-03-23T06:28:00;11.50;1.00
10278;DHT22;5184;51.376;7.148;2023-03-23T06:30:26;11.60;1.00
10278;DHT22;5184;51.376;7.148;2023-03-23T06:32:53;11.50;1.00
10278;DHT22;5184;51.376;7.148;2023-03-23T06:35:20;11.60;1.00
10278;DHT22;5184;51.376;7.148;2023-03-23T06:37:46;11.60;1.00
10278;DHT22;5184;51.376;7.148;2023-03-23T06:40:13;11.60;1.00
10278;DHT22;5184;51.376;7.148;2023-03-23T06:42:39;11.60;1.00
10278;DHT22;5184;51.376;7.148;2023-03-23T06:45:07;11.60;99.90
10278;DHT22;5184;51.376;7.148;2023-03-23T06:47:33;11.70;99.90
10278;DHT22;5184;51.376;7.148;2023-03-23T06:50:01;11.70;1.00
10278;DHT22;5184;51.376;7.148;2023-03-23T06:52:28;11.70;99.90
10278;DHT22;5184;51.376;7.148;2023-03-23T06:54:55;11.70;1.00
10278;DHT22;5184;51.376;7.148;2023-03-23T06:57:23;11.70;1.00
10278;DHT22;5184;51.376;7.148;2023-03-23T06:59:50;11.80;99.90
10278;DHT22;5184;51.376;7.148;2023-03-23T07:02:17;11.80;99.90
10278;DHT22;5184;51.376;7.148;2023-03-23T07:04:43;11.80;23.40
10278;DHT22;5184;51.376;7.148;2023-03-23T07:07:10;11.80;1.00
10278;DHT22;5184;51.376;7.148;2023-03-23T07:09:37;11.90;1.00
10278;DHT22;5184;51.376;7.148;2023-03-23T07:12:03;11.90;99.90
10278;DHT22;5184;51.376;7.148;2023-03-23T07:14:30;12.00;25.20
10278;DHT22;5184;51.376;7.148;2023-03-23T07:16:56;12.00;99.90
10278;DHT22;5184;51.376;7.148;2023-03-23T07:19:23;12.00;99.90
10278;DHT22;5184;51.376;7.148;2023-03-23T07:21:50;12.00;28.70
10278;DHT22;5184;51.376;7.148;2023-03-23T07:24:16;12.00;1.00
10278;DHT22;5184;51.376;7.148;2023-03-23T07:26:44;12.00;99.90
10278;DHT22;5184;51.376;7.148;2023-03-23T07:29:11;12.10;99.90
10278;DHT22;5184;51.376;7.148;2023-03-23T07:31:37;12.10;99.90
10278;DHT22;5184;51.376;7.148;2023-03-23T07:34:04;12.10;51.40
10278;DHT22;5184;51.376;7.148;2023-03-23T07:36:31;12.20;99.90
10278;DHT22;5184;51.376;7.148;2023-03-23T07:38:58;12.30;1.00
10278;DHT22;5184;51.376;7.148;2023-03-23T07:41:25;12.30;1.00
10278;DHT22;5184;51.376;7.148;2023-03-23T07:43:53;12.30;99.90
10278;DHT22;5184;51.376;7.148;2023-03-23T07:46:20;12.20;99.90
10278;DHT22;5184;51.376;7.148;2023-03-23T07:48:47;12.20;99.90
10278;DHT22;5184;51.376;7.148;2023-03-23T07:51:15;12.30;1.00
10278;DHT22;5184;51.376;7.148;2023-03-23T07:53:43;12.30;1.00
10278;DHT22;5184;51.376;7.148;2023-03-23T07:56:09;12.30;99.90
10278;DHT22;5184;51.376;7.148;2023-03-23T07:58:36;12.40;99.90
10278;DHT22;5184;51.376;7.148;2023-03-23T08:01:04;12.40;74.90
10278;DHT22;5184;51.376;7.148;2023-03-23T08:03:30;12.40;63.90
10278;DHT22;5184;51.376;7.148;2023-03-23T08:05:58;12.40;1.00
10278;DHT22;5184;51.376;7.148;2023-03-23T08:08:25;12.40;1.00
10278;DHT22;5184;51.376;7.148;2023-03-23T08:10:52;12.50;1.00
10278;DHT22;5184;51.376;7.148;2023-03-23T08:13:20;12.40;1.00
10278;DHT22;5184;51.376;7.148;2023-03-23T08:15:47;12.50;1.00
10278;DHT22;5184;51.376;7.148;2023-03-23T08:18:14;12.50;99.90
10278;DHT22;5184;51.376;7.148;2023-03-23T08:20:42;12.50;99.90
10278;DHT22;5184;51.376;7.148;2023-03-23T08:23:09;12.50;99.90
10278;DHT22;5184;51.376;7.148;2023-03-23T08:25:36;12.50;99.90
10278;DHT22;5184;51.376;7.148;2023-03-23T08:28:03;12.50;99.90
10278;DHT22;5184;51.376;7.148;2023-03-23T08:30:29;12.60;99.90
10278;DHT22;5184;51.376;7.148;2023-03-23T08:32:57;12.70;1.00
10278;DHT22;5184;51.376;7.148;2023-03-23T08:35:24;12.60;1.00
10278;DHT22;5184;51.376;7.148;2023-03-23T08:37:51;12.70;28.50
10278;DHT22;5184;51.376;7.148;2023-03-23T08:40:19;12.70;74.10
10278;DHT22;5184;51.376;7.148;2023-03-23T08:42:46;12.70;57.30
10278;DHT22;5184;51.376;7.148;2023-03-23T08:45:14;12.80;1.00
10278;DHT22;5184;51.376;7.148;2023-03-23T08:47:39;12.80;1.00
10278;DHT22;5184;51.376;7.148;2023-03-23T08:50:07;12.80;1.00
10278;DHT22;5184;51.376;7.148;2023-03-23T08:52:33;13.00;1.00
10278;DHT22;5184;51.376;7.148;2023-03-23T08:55:00;13.00;1.00
10278;DHT22;5184;51.376;7.148;2023-03-23T08:57:26;13.00;99.90
10278;DHT22;5184;51.376;7.148;2023-03-23T08:59:53;12.90;1.00
10278;DHT22;5184;51.376;7.148;2023-03-23T09:02:20;12.90;90.00
10278;DHT22;5184;51.376;7.148;2023-03-23T09:04:48;13.00;99.90
10278;DHT22;5184;51.376;7.148;2023-03-23T09:07:15;13.10;1.00
10278;DHT22;5184;51.376;7.148;2023-03-23T09:09:42;13.10;1.00
10278;DHT22;5184;51.376;7.148;2023-03-23T09:12:10;13.10;1.00
10278;DHT22;5184;51.376;7.148;2023-03-23T09:14:37;13.10;1.00
10278;DHT22;5184;51.376;7.148;2023-03-23T09:17:05;13.30;33.70
10278;DHT22;5184;51.376;7.148;2023-03-23T09:19:32;13.10;25.70
10278;DHT22;5184;51.376;7.148;2023-03-23T09:21:58;13.10;1.00
10278;DHT22;5184;51.376;7.148;2023-03-23T09:24:24;13.10;1.00
10278;DHT22;5184;51.376;7.148;2023-03-23T09:26:51;13.00;1.00
10278;DHT22;5184;51.376;7.148;2023-03-23T09:29:17;13.00;1.00
10278;DHT22;5184;51.376;7.148;2023-03-23T09:31:44;13.00;1.00
10278;DHT22;5184;51.376;7.148;2023-03-23T09:34:10;13.00;1.00
10278;DHT22;5184;51.376;7.148;2023-03-23T09:36:38;13.10;1.00
10278;DHT22;5184;51.376;7.148;2023-03-23T09:39:05;13.10;1.00
10278;DHT22;5184;51.376;7.148;2023-03-23T09:44:41;13.20;1.00
10278;DHT22;5184;51.376;7.148;2023-03-23T09:47:09;13.30;1.00
10278;DHT22;5184;51.376;7.148;2023-03-23T09:49:33;13.30;1.00
10278;DHT22;5184;51.376;7.148;2023-03-23T09:52:01;13.30;1.00
10278;DHT22;5184;51.376;7.148;2023-03-23T09:54:29;13.30;1.00
10278;DHT22;5184;51.376;7.148;2023-03-23T09:56:55;13.30;1.00
10278;DHT22;5184;51.376;7.148;2023-03-23T09:59:30;13.20;1.00
10278;DHT22;5184;51.376;7.148;2023-03-23T10:01:56;13.20;1.00
10278;DHT22;5184;51.376;7.148;2023-03-23T10:07:00;13.10;1.00
10278;DHT22;5184;51.376;7.148;2023-03-23T10:09:26;13.10;1.00
10278;DHT22;5184;51.376;7.148;2023-03-23T10:12:02;13.20;1.00
10278;DHT22;5184;51.376;7.148;2023-03-23T10:14:35;13.20;1.00
10278;DHT22;5184;51.376;7.148;2023-03-23T10:17:03;13.00;1.00
10278;DHT22;5184;51.376;7.148;2023-03-23T10:19:47;13.00;1.00
10278;DHT22;5184;51.376;7.148;2023-03-23T10:22:07;12.90;99.90
10278;DHT22;5184;51.376;7.148;2023-03-23T10:24:34;12.30;1.00
10278;DHT22;5184;51.376;7.148;2023-03-23T10:29:46;11.00;1.00
10278;DHT22;5184;51.376;7.148;2023-03-23T10:32:14;10.50;1.00
10278;DHT22;5184;51.376;7.148;2023-03-23T10:37:21;10.40;1.00
10278;DHT22;5184;51.376;7.148;2023-03-23T10:39:50;10.00;99.90
10278;DHT22;5184;51.376;7.148;2023-03-23T10:42:35;10.00;99.90
10278;DHT22;5184;51.376;7.148;2023-03-23T10:45:15;10.00;99.90
10278;DHT22;5184;51.376;7.148;2023-03-23T10:47:39;10.00;99.90
10278;DHT22;5184;51.376;7.148;2023-03-23T10:50:10;9.90;99.90
10278;DHT22;5184;51.376;7.148;2023-03-23T10:52:35;9.80;99.90
10278;DHT22;5184;51.376;7.148;2023-03-23T10:55:06;9.80;99.90
10278;DHT22;5184;51.376;7.148;2023-03-23T10:57:31;9.70;99.90
10278;DHT22;5184;51.376;7.148;2023-03-23T11:00:00;9.70;99.90
10278;DHT22;5184;51.376;7.148;2023-03-23T11:02:26;9.60;99.90
10278;DHT22;5184;51.376;7.148;2023-03-23T11:04:56;9.60;99.90
10278;DHT22;5184;51.376;7.148;2023-03-23T11:07:23;9.60;99.90
10278;DHT22;5184;51.376;7.148;2023-03-23T11:09:52;9.60;99.90
10278;DHT22;5184;51.376;7.148;2023-03-23T11:12:18;9.60;99.90
10278;DHT22;5184;51.376;7.148;2023-03-23T11:14:44;9.60;99.90
10278;DHT22;5184;51.376;7.148;2023-03-23T11:17:21;9.60;99.90
10278;DHT22;5184;51.376;7.148;2023-03-23T11:19:47;9.60;99.90
10278;DHT22;5184;51.376;7.148;2023-03-23T11:22:24;9.70;99.90
10278;DHT22;5184;51.376;7.148;2023-03-23T11:24:47;9.60;99.90
10278;DHT22;5184;51.376;7.148;2023-03-23T11:27:14;9.70;99.90
10278;DHT22;5184;51.376;7.148;2023-03-23T11:29:50;9.60;99.90
10278;DHT22;5184;51.376;7.148;2023-03-23T11:32:15;9.60;99.90
10278;DHT22;5184;51.376;7.148;2023-03-23T11:34:43;9.50;99.90
10278;DHT22;5184;51.376;7.148;2023-03-23T11:37:13;9.50;99.90
10278;DHT22;5184;51.376;7.148;2023-03-23T11:39:46;9.50;99.90
10278;DHT22;5184;51.376;7.148;2023-03-23T11:42:20;9.60;99.90
10278;DHT22;5184;51.376;7.148;2023-03-23T11:44:41;9.60;99.90
10278;DHT22;5184;51.376;7.148;2023-03-23T11:47:16;9.70;99.90
10278;DHT22;5184;51.376;7.148;2023-03-23T11:49:47;9.80;99.90
10278;DHT22;5184;51.376;7.148;2023-03-23T11:52:23;9.90;99.90
10278;DHT22;5184;51.376;7.148;2023-03-23T11:54:50;10.00;99.90
10278;DHT22;5184;51.376;7.148;2023-03-23T11:57:13;10.20;99.90
10278;DHT22;5184;51.376;7.148;2023-03-23T11:59:41;10.40;99.90
10278;DHT22;5184;51.376;7.148;2023-03-23T12:02:29;10.40;99.90
10278;DHT22;5184;51.376;7.148;2023-03-23T12:07:37;10.30;99.90
10278;DHT22;5184;51.376;7.148;2023-03-23T12:10:04;10.40;99.90
10278;DHT22;5184;51.376;7.148;2023-03-23T12:12:40;10.50;99.90
10278;DHT22;5184;51.376;7.148;2023-03-23T12:15:17;10.50;99.90
10278;DHT22;5184;51.376;7.148;2023-03-23T12:20:42;10.70;99.90
10278;DHT22;5184;51.376;7.148;2023-03-23T12:23:13;10.70;99.90
10278;DHT22;5184;51.376;7.148;2023-03-23T12:25:42;10.60;99.90
10278;DHT22;5184;51.376;7.148;2023-03-23T12:28:17;10.50;99.90
10278;DHT22;5184;51.376;7.148;2023-03-23T12:30:49;10.60;99.90
10278;DHT22;5184;51.376;7.148;2023-03-23T12:33:36;10.60;99.90
10278;DHT22;5184;51.376;7.148;2023-03-23T12:36:22;10.50;99.90
10278;DHT22;5184;51.376;7.148;2023-03-23T12:41:50;10.20;99.90
10278;DHT22;5184;51.376;7.148;2023-03-23T12:44:17;10.40;99.90
10278;DHT22;5184;51.376;7.148;2023-03-23T12:46:50;10.30;99.90
10278;DHT22;5184;51.376;7.148;2023-03-23T12:49:31;10.40;99.90
10278;DHT22;5184;51.376;7.148;2023-03-23T12:51:59;10.50;99.90
10278;DHT22;5184;51.376;7.148;2023-03-23T12:54:42;10.50;99.90
10278;DHT22;5184;51.376;7.148;2023-03-23T12:57:14;10.50;99.90
10278;DHT22;5184;51.376;7.148;2023-03-23T12:59:45;10.50;99.90
10278;DHT22;5184;51.376;7.148;2023-03-23T13:02:31;10.50;99.90
10278;DHT22;5184;51.376;7.148;2023-03-23T13:05:26;10.60;99.90
10278;DHT22;5184;51.376;7.148;2023-03-23T13:07:43;10.60;99.90
10278;DHT22;5184;51.376;7.148;2023-03-23T13:10:24;10.60;99.90
10278;DHT22;5184;51.376;7.148;2023-03-23T13:12:50;10.60;99.90
10278;DHT22;5184;51.376;7.148;2023-03-23T13:15:21;10.60;99.90
10278;DHT22;5184;51.376;7.148;2023-03-23T13:17:46;10.50;99.90
10278;DHT22;5184;51.376;7.148;2023-03-23T13:20:22;10.70;99.90
10278;DHT22;5184;51.376;7.148;2023-03-23T13:23:02;10.80;99.90
10278;DHT22;5184;51.376;7.148;2023-03-23T13:25:46;10.80;99.90
10278;DHT22;5184;51.376;7.148;2023-03-23T13:28:13;11.10;99.90
10278;DHT22;5184;51.376;7.148;2023-03-23T13:30:37;11.20;99.90
10278;DHT22;5184;51.376;7.148;2023-03-23T13:33:04;11.50;99.90
10278;DHT22;5184;51.376;7.148;2023-03-23T13:35:35;12.00;99.90
10278;DHT22;5184;51.376;7.148;2023-03-23T13:38:00;11.90;99.90
10278;DHT22;5184;51.376;7.148;2023-03-23T13:40:29;12.00;99.90
10278;DHT22;5184;51.376;7.148;2023-03-23T13:42:54;12.00;99.90
10278;DHT22;5184;51.376;7.148;2023-03-23T13:45:21;12.10;99.90
10278;DHT22;5184;51.376;7.148;2023-03-23T13:47:46;12.10;99.90
10278;DHT22;5184;51.376;7.148;2023-03-23T13:50:30;11.90;99.90
10278;DHT22;5184;51.376;7.148;2023-03-23T13:53:00;11.70;99.90
10278;DHT22;5184;51.376;7.148;2023-03-23T13:55:42;11.70;99.90
10278;DHT22;5184;51.376;7.148;2023-03-23T13:58:10;11.70;99.90
10278;DHT22;5184;51.376;7.148;2023-03-23T14:00:44;11.80;99.90
10278;DHT22;5184;51.376;7.148;2023-03-23T14:03:10;11.80;99.90
10278;DHT22;5184;51.376;7.148;2023-03-23T14:05:34;11.80;99.90
10278;DHT22;5184;51.376;7.148;2023-03-23T14:08:11;11.80;99.90
10278;DHT22;5184;51.376;7.148;2023-03-23T14:10:41;11.80;99.90
10278;DHT22;5184;51.376;7.148;2023-03-23T14:13:06;11.90;99.90
10278;DHT22;5184;51.376;7.148;2023-03-23T14:15:37;11.90;99.90
10278;DHT22;5184;51.376;7.148;2023-03-23T14:18:01;11.80;99.90
10278;DHT22;5184;51.376;7.148;2023-03-23T14:20:29;11.80;99.90
10278;DHT22;5184;51.376;7.148;2023-03-23T14:22:54;11.80;99.90
10278;DHT22;5184;51.376;7.148;2023-03-23T14:25:20;11.80;99.90
10278;DHT22;5184;51.376;7.148;2023-03-23T14:27:47;11.80;99.90
10278;DHT22;5184;51.376;7.148;2023-03-23T14:30:16;11.80;99.90
10278;DHT22;5184;51.376;7.148;2023-03-23T14:32:41;11.80;99.90
10278;DHT22;5184;51.376;7.148;2023-03-23T14:35:15;11.80;99.90
10278;DHT22;5184;51.376;7.148;2023-03-23T14:37:40;11.90;99.90
10278;DHT22;5184;51.376;7.148;2023-03-23T14:40:08;11.90;99.90
10278;DHT22;5184;51.376;7.148;2023-03-23T14:42:35;12.70;99.90
10278;DHT22;5184;51.376;7.148;2023-03-23T14:45:02;12.90;99.90
10278;DHT22;5184;51.376;7.148;2023-03-23T14:47:37;12.90;99.90
10278;DHT22;5184;51.376;7.148;2023-03-23T14:50:01;13.00;99.90
10278;DHT22;5184;51.376;7.148;2023-03-23T14:52:28;13.00;99.90
10278;DHT22;5184;51.376;7.148;2023-03-23T14:54:54;13.00;99.90
10278;DHT22;5184;51.376;7.148;2023-03-23T14:57:28;13.00;99.90
10278;DHT22;5184;51.376;7.148;2023-03-23T14:59:53;13.20;99.90
10278;DHT22;5184;51.376;7.148;2023-03-23T15:02:27;13.00;99.90
10278;DHT22;5184;51.376;7.148;2023-03-23T15:04:55;12.90;99.90
10278;DHT22;5184;51.376;7.148;2023-03-23T15:07:20;13.10;94.00
10278;DHT22;5184;51.376;7.148;2023-03-23T15:09:48;13.50;1.00
10278;DHT22;5184;51.376;7.148;2023-03-23T15:12:24;14.10;99.90
10278;DHT22;5184;51.376;7.148;2023-03-23T15:14:56;14.10;99.90
10278;DHT22;5184;51.376;7.148;2023-03-23T15:17:24;13.60;1.00
10278;DHT22;5184;51.376;7.148;2023-03-23T15:19:51;13.50;1.00
10278;DHT22;5184;51.376;7.148;2023-03-23T15:22:21;13.50;3.20
10278;DHT22;5184;51.376;7.148;2023-03-23T15:24:45;13.50;1.00
10278;DHT22;5184;51.376;7.148;2023-03-23T15:27:16;13.40;1.00
10278;DHT22;5184;51.376;7.148;2023-03-23T15:29:48;13.80;1.00
10278;DHT22;5184;51.376;7.148;2023-03-23T15:32:19;13.80;1.00
10278;DHT22;5184;51.376;7.148;2023-03-23T15:34:40;13.90;1.00
10278;DHT22;5184;51.376;7.148;2023-03-23T15:39:40;14.10;99.90
10278;DHT22;5184;51.376;7.148;2023-03-23T15:42:06;14.80;99.90
10278;DHT22;5184;51.376;7.148;2023-03-23T15:44:33;15.10;1.00
10278;DHT22;5184;51.376;7.148;2023-03-23T15:47:12;15.40;99.90
10278;DHT22;5184;51.376;7.148;2023-03-23T15:49:31;15.80;99.90
10278;DHT22;5184;51.376;7.148;2023-03-23T15:51:58;15.60;99.90
10278;DHT22;5184;51.376;7.148;2023-03-23T15:54:29;15.60;99.90
10278;DHT22;5184;51.376;7.148;2023-03-23T15:56:53;15.80;99.90
10278;DHT22;5184;51.376;7.148;2023-03-23T15:59:20;15.80;99.90
10278;DHT22;5184;51.376;7.148;2023-03-23T16:01:47;15.80;1.00
10278;DHT22;5184;51.376;7.148;2023-03-23T16:04:15;15.70;1.00
10278;DHT22;5184;51.376;7.148;2023-03-23T16:06:40;15.70;1.00
10278;DHT22;5184;51.376;7.148;2023-03-23T16:09:07;15.90;99.90
10278;DHT22;5184;51.376;7.148;2023-03-23T16:11:33;15.80;99.90
10278;DHT22;5184;51.376;7.148;2023-03-23T16:14:00;15.80;1.00
10278;DHT22;5184;51.376;7.148;2023-03-23T16:16:28;15.60;99.90
10278;DHT22;5184;51.376;7.148;2023-03-23T16:18:53;15.50;20.70
10278;DHT22;5184;51.376;7.148;2023-03-23T16:21:21;15.40;1.00
10278;DHT22;5184;51.376;7.148;2023-03-23T16:23:48;15.60;99.90
10278;DHT22;5184;51.376;7.148;2023-03-23T16:26:15;15.50;99.90